sensor_id;sensor_type;location;lat;lon;timestamp;temperature;humidity
76203;DHT22;64985;46.364;17.008;2023-03-05T00:01:53;2.50;97.90
76203;DHT22;64985;46.364;17.008;2023-03-05T00:04:56;2.50;98.50
76203;DHT22;64985;46.364;17.008;2023-03-05T00:07:59;2.50;97.60
76203;DHT22;64985;46.364;17.008;2023-03-05T00:11:04;2.50;96.70
76203;DHT22;64985;46.364;17.008;2023-03-05T00:14:09;2.50;97.20
76203;DHT22;64985;46.364;17.008;2023-03-05T00:17:12;2.40;97.00
76203;DHT22;64985;46.364;17.008;2023-03-05T00:20:15;2.40;96.80
76203;DHT22;64985;46.364;17.008;2023-03-05T00:23:18;2.30;98.00
76203;DHT22;64985;46.364;17.008;2023-03-05T00:26:24;2.30;97.90
76203;DHT22;64985;46.364;17.008;2023-03-05T00:29:27;2.40;97.40
76203;DHT22;64985;46.364;17.008;2023-03-05T00:32:33;2.30;97.60
76203;DHT22;64985;46.364;17.008;2023-03-05T00:35:45;2.30;97.70
76203;DHT22;64985;46.364;17.008;2023-03-05T00:38:48;2.30;97.90
76203;DHT22;64985;46.364;17.008;2023-03-05T00:41:51;2.30;96.60
76203;DHT22;64985;46.364;17.008;2023-03-05T00:44:54;2.30;96.90
76203;DHT22;64985;46.364;17.008;2023-03-05T00:47:58;2.20;97.10
76203;DHT22;64985;46.364;17.008;2023-03-05T00:51:01;2.20;97.40
76203;DHT22;64985;46.364;17.008;2023-03-05T00:54:05;2.20;97.00
76203;DHT22;64985;46.364;17.008;2023-03-05T00:57:08;2.10;97.70
76203;DHT22;64985;46.364;17.008;2023-03-05T01:00:13;2.10;96.90
76203;DHT22;64985;46.364;17.008;2023-03-05T01:03:19;2.10;96.50
76203;DHT22;64985;46.364;17.008;2023-03-05T01:06:22;2.10;96.00
76203;DHT22;64985;46.364;17.008;2023-03-05T01:09:26;2.00;97.20
76203;DHT22;64985;46.364;17.008;2023-03-05T01:12:29;2.00;97.20
76203;DHT22;64985;46.364;17.008;2023-03-05T01:15:33;1.90;97.60
76203;DHT22;64985;46.364;17.008;2023-03-05T01:18:37;1.90;96.20
76203;DHT22;64985;46.364;17.008;2023-03-05T01:21:40;1.90;97.70
76203;DHT22;64985;46.364;17.008;2023-03-05T01:24:44;1.80;97.40
76203;DHT22;64985;46.364;17.008;2023-03-05T01:27:47;1.80;97.70
76203;DHT22;64985;46.364;17.008;2023-03-05T01:30:50;1.80;97.50
76203;DHT22;64985;46.364;17.008;2023-03-05T01:33:54;1.80;97.50
76203;DHT22;64985;46.364;17.008;2023-03-05T01:36:57;1.70;99.40
76203;DHT22;64985;46.364;17.008;2023-03-05T01:40:01;1.70;99.90
76203;DHT22;64985;46.364;17.008;2023-03-05T01:46:32;1.60;99.90
76203;DHT22;64985;46.364;17.008;2023-03-05T01:49:39;1.70;99.90
76203;DHT22;64985;46.364;17.008;2023-03-05T01:53:05;1.70;99.90
76203;DHT22;64985;46.364;17.008;2023-03-05T01:56:07;1.70;99.90
76203;DHT22;64985;46.364;17.008;2023-03-05T01:59:11;1.80;99.90
76203;DHT22;64985;46.364;17.008;2023-03-05T02:02:16;1.80;99.90
76203;DHT22;64985;46.364;17.008;2023-03-05T02:05:28;1.90;99.90
76203;DHT22;64985;46.364;17.008;2023-03-05T02:08:31;1.90;99.90
76203;DHT22;64985;46.364;17.008;2023-03-05T02:11:35;2.00;99.90
76203;DHT22;64985;46.364;17.008;2023-03-05T02:14:39;2.10;99.90
76203;DHT22;64985;46.364;17.008;2023-03-05T02:17:43;2.10;99.90
76203;DHT22;64985;46.364;17.008;2023-03-05T02:23:58;2.10;99.90
76203;DHT22;64985;46.364;17.008;2023-03-05T02:27:02;2.20;99.30
76203;DHT22;64985;46.364;17.008;2023-03-05T02:30:07;2.20;99.90
76203;DHT22;64985;46.364;17.008;2023-03-05T02:33:12;2.30;99.80
76203;DHT22;64985;46.364;17.008;2023-03-05T02:36:17;2.30;99.00
76203;DHT22;64985;46.364;17.008;2023-03-05T02:39:20;2.30;99.90
76203;DHT22;64985;46.364;17.008;2023-03-05T02:42:23;2.30;99.90
76203;DHT22;64985;46.364;17.008;2023-03-05T02:45:26;2.40;98.20
76203;DHT22;64985;46.364;17.008;2023-03-05T02:48:29;2.50;97.90
76203;DHT22;64985;46.364;17.008;2023-03-05T02:51:32;2.50;96.80
76203;DHT22;64985;46.364;17.008;2023-03-05T02:54:35;2.60;96.70
76203;DHT22;64985;46.364;17.008;2023-03-05T02:57:39;2.60;97.00
76203;DHT22;64985;46.364;17.008;2023-03-05T03:00:42;2.60;96.60
76203;DHT22;64985;46.364;17.008;2023-03-05T03:03:45;2.60;96.10
76203;DHT22;64985;46.364;17.008;2023-03-05T03:06:48;2.60;97.90
76203;DHT22;64985;46.364;17.008;2023-03-05T03:09:52;2.60;99.30
76203;DHT22;64985;46.364;17.008;2023-03-05T03:12:55;2.60;98.00
76203;DHT22;64985;46.364;17.008;2023-03-05T03:16:07;2.60;99.40
76203;DHT22;64985;46.364;17.008;2023-03-05T03:19:10;2.60;99.60
76203;DHT22;64985;46.364;17.008;2023-03-05T03:22:15;2.60;97.80
76203;DHT22;64985;46.364;17.008;2023-03-05T03:25:20;2.50;98.30
76203;DHT22;64985;46.364;17.008;2023-03-05T03:28:24;2.60;99.00
76203;DHT22;64985;46.364;17.008;2023-03-05T03:31:27;2.60;98.10
76203;DHT22;64985;46.364;17.008;2023-03-05T03:34:31;2.50;97.30
76203;DHT22;64985;46.364;17.008;2023-03-05T03:37:34;2.50;99.80
76203;DHT22;64985;46.364;17.008;2023-03-05T03:40:37;2.50;99.90
76203;DHT22;64985;46.364;17.008;2023-03-05T03:43:40;2.50;99.90
76203;DHT22;64985;46.364;17.008;2023-03-05T03:46:45;2.40;99.90
76203;DHT22;64985;46.364;17.008;2023-03-05T03:49:52;2.40;99.90
76203;DHT22;64985;46.364;17.008;2023-03-05T03:52:55;2.40;99.90
76203;DHT22;64985;46.364;17.008;2023-03-05T03:55:58;2.30;99.90
76203;DHT22;64985;46.364;17.008;2023-03-05T03:59:01;2.30;99.90
76203;DHT22;64985;46.364;17.008;2023-03-05T04:02:04;2.30;99.90
76203;DHT22;64985;46.364;17.008;2023-03-05T04:05:07;2.30;99.90
76203;DHT22;64985;46.364;17.008;2023-03-05T04:08:11;2.20;99.90
76203;DHT22;64985;46.364;17.008;2023-03-05T04:11:14;2.20;99.90
76203;DHT22;64985;46.364;17.008;2023-03-05T04:14:17;2.20;99.90
76203;DHT22;64985;46.364;17.008;2023-03-05T04:17:20;2.20;99.90
76203;DHT22;64985;46.364;17.008;2023-03-05T04:20:24;2.20;99.90
76203;DHT22;64985;46.364;17.008;2023-03-05T04:23:27;2.20;99.90
76203;DHT22;64985;46.364;17.008;2023-03-05T04:26:30;2.20;99.90
76203;DHT22;64985;46.364;17.008;2023-03-05T04:29:34;2.20;99.90
76203;DHT22;64985;46.364;17.008;2023-03-05T04:32:37;2.20;99.90
76203;DHT22;64985;46.364;17.008;2023-03-05T04:35:40;2.20;99.90
76203;DHT22;64985;46.364;17.008;2023-03-05T04:38:43;2.20;99.90
76203;DHT22;64985;46.364;17.008;2023-03-05T04:41:47;2.10;99.90
76203;DHT22;64985;46.364;17.008;2023-03-05T04:44:50;2.20;99.90
76203;DHT22;64985;46.364;17.008;2023-03-05T04:47:53;2.20;99.90
76203;DHT22;64985;46.364;17.008;2023-03-05T04:50:57;2.20;99.90
76203;DHT22;64985;46.364;17.008;2023-03-05T04:54:00;2.20;99.90
76203;DHT22;64985;46.364;17.008;2023-03-05T04:57:03;2.20;99.90
76203;DHT22;64985;46.364;17.008;2023-03-05T05:00:11;2.20;99.90
76203;DHT22;64985;46.364;17.008;2023-03-05T05:03:17;2.20;99.90
76203;DHT22;64985;46.364;17.008;2023-03-05T05:06:20;2.20;99.90
76203;DHT22;64985;46.364;17.008;2023-03-05T05:09:25;2.10;99.90
76203;DHT22;64985;46.364;17.008;2023-03-05T05:12:29;2.20;99.90
76203;DHT22;64985;46.364;17.008;2023-03-05T05:15:32;2.20;99.90
76203;DHT22;64985;46.364;17.008;2023-03-05T05:18:36;2.20;99.90
76203;DHT22;64985;46.364;17.008;2023-03-05T05:21:40;2.10;99.90
76203;DHT22;64985;46.364;17.008;2023-03-05T05:24:43;2.10;99.90
76203;DHT22;64985;46.364;17.008;2023-03-05T05:27:46;2.10;99.90
76203;DHT22;64985;46.364;17.008;2023-03-05T05:30:49;2.00;99.90
76203;DHT22;64985;46.364;17.008;2023-03-05T05:33:52;2.00;99.90
76203;DHT22;64985;46.364;17.008;2023-03-05T05:36:55;2.00;99.90
76203;DHT22;64985;46.364;17.008;2023-03-05T05:39:58;1.90;99.90
76203;DHT22;64985;46.364;17.008;2023-03-05T05:43:02;1.90;99.90
76203;DHT22;64985;46.364;17.008;2023-03-05T05:46:08;1.90;99.90
76203;DHT22;64985;46.364;17.008;2023-03-05T05:49:12;1.90;99.90
76203;DHT22;64985;46.364;17.008;2023-03-05T05:52:20;1.90;99.90
76203;DHT22;64985;46.364;17.008;2023-03-05T05:55:23;1.90;99.90
76203;DHT22;64985;46.364;17.008;2023-03-05T05:58:26;2.00;99.90
76203;DHT22;64985;46.364;17.008;2023-03-05T06:01:31;2.00;99.90
76203;DHT22;64985;46.364;17.008;2023-03-05T06:04:35;2.00;99.90
76203;DHT22;64985;46.364;17.008;2023-03-05T06:07:38;2.00;99.90
76203;DHT22;64985;46.364;17.008;2023-03-05T06:10:42;2.10;99.90
76203;DHT22;64985;46.364;17.008;2023-03-05T06:13:45;2.10;99.90
76203;DHT22;64985;46.364;17.008;2023-03-05T06:16:48;2.20;99.90
76203;DHT22;64985;46.364;17.008;2023-03-05T06:19:54;2.20;99.90
76203;DHT22;64985;46.364;17.008;2023-03-05T06:22:57;2.30;99.90
76203;DHT22;64985;46.364;17.008;2023-03-05T06:26:02;2.30;99.90
76203;DHT22;64985;46.364;17.008;2023-03-05T06:29:06;2.40;99.90
76203;DHT22;64985;46.364;17.008;2023-03-05T06:32:09;2.50;99.90
76203;DHT22;64985;46.364;17.008;2023-03-05T06:35:12;2.70;99.90
76203;DHT22;64985;46.364;17.008;2023-03-05T06:38:16;2.70;99.90
76203;DHT22;64985;46.364;17.008;2023-03-05T06:41:24;2.90;99.90
76203;DHT22;64985;46.364;17.008;2023-03-05T06:44:27;2.90;99.90
76203;DHT22;64985;46.364;17.008;2023-03-05T06:47:30;3.10;99.90
76203;DHT22;64985;46.364;17.008;2023-03-05T06:50:35;3.20;99.90
76203;DHT22;64985;46.364;17.008;2023-03-05T06:53:38;3.30;99.90
76203;DHT22;64985;46.364;17.008;2023-03-05T06:56:44;3.40;99.90
76203;DHT22;64985;46.364;17.008;2023-03-05T06:59:47;3.40;99.90
76203;DHT22;64985;46.364;17.008;2023-03-05T07:02:50;3.50;99.60
76203;DHT22;64985;46.364;17.008;2023-03-05T07:05:53;3.50;99.90
76203;DHT22;64985;46.364;17.008;2023-03-05T07:08:58;3.50;99.90
76203;DHT22;64985;46.364;17.008;2023-03-05T07:12:03;3.60;99.90
76203;DHT22;64985;46.364;17.008;2023-03-05T07:15:06;3.70;99.90
76203;DHT22;64985;46.364;17.008;2023-03-05T07:18:09;3.80;98.90
76203;DHT22;64985;46.364;17.008;2023-03-05T07:21:24;3.90;99.90
76203;DHT22;64985;46.364;17.008;2023-03-05T07:24:27;3.90;97.70
76203;DHT22;64985;46.364;17.008;2023-03-05T07:27:37;3.80;96.40
76203;DHT22;64985;46.364;17.008;2023-03-05T07:30:40;3.90;94.90
76203;DHT22;64985;46.364;17.008;2023-03-05T07:33:47;4.00;94.70
76203;DHT22;64985;46.364;17.008;2023-03-05T07:36:51;4.00;94.10
76203;DHT22;64985;46.364;17.008;2023-03-05T07:39:55;4.10;93.90
76203;DHT22;64985;46.364;17.008;2023-03-05T07:42:58;4.20;93.50
76203;DHT22;64985;46.364;17.008;2023-03-05T07:46:09;4.20;92.40
76203;DHT22;64985;46.364;17.008;2023-03-05T07:49:13;4.30;88.00
76203;DHT22;64985;46.364;17.008;2023-03-05T07:52:16;4.40;90.30
76203;DHT22;64985;46.364;17.008;2023-03-05T07:55:20;4.40;91.60
76203;DHT22;64985;46.364;17.008;2023-03-05T07:58:24;4.40;83.80
76203;DHT22;64985;46.364;17.008;2023-03-05T08:01:29;4.50;86.00
76203;DHT22;64985;46.364;17.008;2023-03-05T08:04:32;4.50;85.90
76203;DHT22;64985;46.364;17.008;2023-03-05T08:07:35;4.50;82.90
76203;DHT22;64985;46.364;17.008;2023-03-05T08:10:38;4.50;90.00
76203;DHT22;64985;46.364;17.008;2023-03-05T08:13:42;4.50;88.20
76203;DHT22;64985;46.364;17.008;2023-03-05T08:16:46;4.50;84.20
76203;DHT22;64985;46.364;17.008;2023-03-05T08:19:53;4.40;78.40
76203;DHT22;64985;46.364;17.008;2023-03-05T08:22:59;4.40;89.90
76203;DHT22;64985;46.364;17.008;2023-03-05T08:26:14;4.50;86.10
76203;DHT22;64985;46.364;17.008;2023-03-05T08:29:17;4.60;79.60
76203;DHT22;64985;46.364;17.008;2023-03-05T08:32:20;4.60;89.50
76203;DHT22;64985;46.364;17.008;2023-03-05T08:35:23;4.70;82.40
76203;DHT22;64985;46.364;17.008;2023-03-05T08:38:26;4.70;75.70
76203;DHT22;64985;46.364;17.008;2023-03-05T08:41:29;4.70;73.90
76203;DHT22;64985;46.364;17.008;2023-03-05T08:44:32;4.70;76.30
76203;DHT22;64985;46.364;17.008;2023-03-05T08:47:36;4.70;78.00
76203;DHT22;64985;46.364;17.008;2023-03-05T08:50:38;4.80;72.70
76203;DHT22;64985;46.364;17.008;2023-03-05T08:53:43;4.90;75.80
76203;DHT22;64985;46.364;17.008;2023-03-05T08:56:46;4.90;77.20
76203;DHT22;64985;46.364;17.008;2023-03-05T08:59:51;5.10;75.10
76203;DHT22;64985;46.364;17.008;2023-03-05T09:02:54;5.10;71.40
76203;DHT22;64985;46.364;17.008;2023-03-05T09:06:02;5.10;67.50
76203;DHT22;64985;46.364;17.008;2023-03-05T09:09:07;5.30;78.20
76203;DHT22;64985;46.364;17.008;2023-03-05T09:12:11;5.40;69.20
76203;DHT22;64985;46.364;17.008;2023-03-05T09:15:15;5.70;62.30
76203;DHT22;64985;46.364;17.008;2023-03-05T09:18:18;5.80;71.50
76203;DHT22;64985;46.364;17.008;2023-03-05T09:21:21;5.90;61.80
76203;DHT22;64985;46.364;17.008;2023-03-05T09:24:24;5.80;65.50
76203;DHT22;64985;46.364;17.008;2023-03-05T09:27:27;5.70;62.30
76203;DHT22;64985;46.364;17.008;2023-03-05T09:30:31;5.60;62.90
76203;DHT22;64985;46.364;17.008;2023-03-05T09:33:37;5.50;59.30
76203;DHT22;64985;46.364;17.008;2023-03-05T09:36:40;5.50;65.90
76203;DHT22;64985;46.364;17.008;2023-03-05T09:39:43;5.70;57.60
76203;DHT22;64985;46.364;17.008;2023-03-05T09:49:58;5.90;54.00
76203;DHT22;64985;46.364;17.008;2023-03-05T09:56:19;5.80;59.00
76203;DHT22;64985;46.364;17.008;2023-03-05T10:02:50;5.80;61.10
76203;DHT22;64985;46.364;17.008;2023-03-05T10:06:02;5.80;63.40
76203;DHT22;64985;46.364;17.008;2023-03-05T10:15:47;6.10;60.10
76203;DHT22;64985;46.364;17.008;2023-03-05T10:22:32;6.10;51.70
76203;DHT22;64985;46.364;17.008;2023-03-05T10:29:09;6.40;48.30
76203;DHT22;64985;46.364;17.008;2023-03-05T10:39:56;6.90;44.90
76203;DHT22;64985;46.364;17.008;2023-03-05T10:46:31;6.50;47.00
76203;DHT22;64985;46.364;17.008;2023-03-05T10:49:37;6.60;45.60
76203;DHT22;64985;46.364;17.008;2023-03-05T10:53:14;6.60;46.50
76203;DHT22;64985;46.364;17.008;2023-03-05T10:56:18;6.80;48.60
76203;DHT22;64985;46.364;17.008;2023-03-05T10:59:23;6.70;50.10
76203;DHT22;64985;46.364;17.008;2023-03-05T11:02:26;6.80;41.70
76203;DHT22;64985;46.364;17.008;2023-03-05T11:05:45;6.90;46.80
76203;DHT22;64985;46.364;17.008;2023-03-05T11:08:49;7.20;42.50
76203;DHT22;64985;46.364;17.008;2023-03-05T11:12:10;7.20;40.30
76203;DHT22;64985;46.364;17.008;2023-03-05T11:18:19;7.40;40.60
76203;DHT22;64985;46.364;17.008;2023-03-05T11:21:25;7.50;38.80
76203;DHT22;64985;46.364;17.008;2023-03-05T11:24:30;7.80;36.80
76203;DHT22;64985;46.364;17.008;2023-03-05T11:27:38;7.90;40.70
76203;DHT22;64985;46.364;17.008;2023-03-05T11:31:18;8.20;38.80
76203;DHT22;64985;46.364;17.008;2023-03-05T11:34:28;8.50;42.70
76203;DHT22;64985;46.364;17.008;2023-03-05T11:37:32;8.50;38.90
76203;DHT22;64985;46.364;17.008;2023-03-05T11:40:36;8.10;40.00
76203;DHT22;64985;46.364;17.008;2023-03-05T11:43:42;8.10;36.00
76203;DHT22;64985;46.364;17.008;2023-03-05T11:46:50;8.30;37.60
76203;DHT22;64985;46.364;17.008;2023-03-05T11:50:10;8.20;37.50
76203;DHT22;64985;46.364;17.008;2023-03-05T11:53:31;8.20;33.30
76203;DHT22;64985;46.364;17.008;2023-03-05T11:56:37;8.00;39.80
76203;DHT22;64985;46.364;17.008;2023-03-05T11:59:41;8.00;35.30
76203;DHT22;64985;46.364;17.008;2023-03-05T12:02:50;8.00;38.10
76203;DHT22;64985;46.364;17.008;2023-03-05T12:06:08;8.20;39.30
76203;DHT22;64985;46.364;17.008;2023-03-05T12:09:39;8.00;39.20
76203;DHT22;64985;46.364;17.008;2023-03-05T12:23:21;7.70;39.10
76203;DHT22;64985;46.364;17.008;2023-03-05T12:27:06;7.40;37.20
76203;DHT22;64985;46.364;17.008;2023-03-05T12:33:41;7.70;37.80
76203;DHT22;64985;46.364;17.008;2023-03-05T12:36:45;7.80;38.60
76203;DHT22;64985;46.364;17.008;2023-03-05T12:43:36;7.80;40.50
76203;DHT22;64985;46.364;17.008;2023-03-05T12:46:43;7.90;40.00
76203;DHT22;64985;46.364;17.008;2023-03-05T12:49:46;8.20;38.90
76203;DHT22;64985;46.364;17.008;2023-03-05T12:56:18;8.70;42.20
76203;DHT22;64985;46.364;17.008;2023-03-05T12:59:41;8.60;39.00
76203;DHT22;64985;46.364;17.008;2023-03-05T13:02:44;8.80;39.80
76203;DHT22;64985;46.364;17.008;2023-03-05T13:05:53;8.90;38.10
76203;DHT22;64985;46.364;17.008;2023-03-05T13:09:00;8.90;39.70
76203;DHT22;64985;46.364;17.008;2023-03-05T13:12:14;8.50;37.00
76203;DHT22;64985;46.364;17.008;2023-03-05T13:15:20;8.60;37.00
76203;DHT22;64985;46.364;17.008;2023-03-05T13:18:29;9.30;38.60
76203;DHT22;64985;46.364;17.008;2023-03-05T13:21:34;9.00;36.90
76203;DHT22;64985;46.364;17.008;2023-03-05T13:24:42;8.50;37.70
76203;DHT22;64985;46.364;17.008;2023-03-05T13:27:48;8.20;39.70
76203;DHT22;64985;46.364;17.008;2023-03-05T13:30:56;8.20;42.30
76203;DHT22;64985;46.364;17.008;2023-03-05T13:37:21;8.10;40.00
76203;DHT22;64985;46.364;17.008;2023-03-05T13:40:29;8.00;37.70
76203;DHT22;64985;46.364;17.008;2023-03-05T13:43:33;8.00;37.70
76203;DHT22;64985;46.364;17.008;2023-03-05T13:46:38;8.00;38.90
76203;DHT22;64985;46.364;17.008;2023-03-05T13:49:42;8.10;37.90
76203;DHT22;64985;46.364;17.008;2023-03-05T13:52:46;8.10;37.60
76203;DHT22;64985;46.364;17.008;2023-03-05T13:55:56;8.30;38.20
76203;DHT22;64985;46.364;17.008;2023-03-05T13:59:00;8.60;35.90
76203;DHT22;64985;46.364;17.008;2023-03-05T14:02:17;9.10;39.60
76203;DHT22;64985;46.364;17.008;2023-03-05T14:05:22;9.20;36.50
76203;DHT22;64985;46.364;17.008;2023-03-05T14:08:26;9.20;39.20
76203;DHT22;64985;46.364;17.008;2023-03-05T14:11:30;9.30;37.50
76203;DHT22;64985;46.364;17.008;2023-03-05T14:14:36;8.90;37.80
76203;DHT22;64985;46.364;17.008;2023-03-05T14:17:41;8.70;38.90
76203;DHT22;64985;46.364;17.008;2023-03-05T14:21:06;8.40;39.00
76203;DHT22;64985;46.364;17.008;2023-03-05T14:24:22;8.20;37.70
76203;DHT22;64985;46.364;17.008;2023-03-05T14:27:34;8.10;40.10
76203;DHT22;64985;46.364;17.008;2023-03-05T14:30:37;8.10;41.40
76203;DHT22;64985;46.364;17.008;2023-03-05T14:33:48;8.40;40.50
76203;DHT22;64985;46.364;17.008;2023-03-05T14:36:54;9.40;39.10
76203;DHT22;64985;46.364;17.008;2023-03-05T14:43:10;9.50;36.80
76203;DHT22;64985;46.364;17.008;2023-03-05T14:46:19;9.10;38.80
76203;DHT22;64985;46.364;17.008;2023-03-05T14:49:23;8.90;38.30
76203;DHT22;64985;46.364;17.008;2023-03-05T14:52:27;9.20;36.50
76203;DHT22;64985;46.364;17.008;2023-03-05T14:55:32;9.50;37.10
76203;DHT22;64985;46.364;17.008;2023-03-05T14:58:39;9.20;33.90
76203;DHT22;64985;46.364;17.008;2023-03-05T15:01:44;9.00;36.80
76203;DHT22;64985;46.364;17.008;2023-03-05T15:04:51;8.70;37.30
76203;DHT22;64985;46.364;17.008;2023-03-05T15:07:54;8.60;38.10
76203;DHT22;64985;46.364;17.008;2023-03-05T15:10:59;9.20;38.40
76203;DHT22;64985;46.364;17.008;2023-03-05T15:14:03;10.10;36.50
76203;DHT22;64985;46.364;17.008;2023-03-05T15:17:13;9.90;34.70
76203;DHT22;64985;46.364;17.008;2023-03-05T15:20:23;9.60;35.20
76203;DHT22;64985;46.364;17.008;2023-03-05T15:23:28;9.40;37.60
76203;DHT22;64985;46.364;17.008;2023-03-05T15:26:37;9.70;37.00
76203;DHT22;64985;46.364;17.008;2023-03-05T15:29:41;10.30;35.50
76203;DHT22;64985;46.364;17.008;2023-03-05T15:32:46;10.10;36.10
76203;DHT22;64985;46.364;17.008;2023-03-05T15:35:49;10.00;36.20
76203;DHT22;64985;46.364;17.008;2023-03-05T15:38:53;9.90;36.00
76203;DHT22;64985;46.364;17.008;2023-03-05T15:41:58;9.60;39.00
76203;DHT22;64985;46.364;17.008;2023-03-05T15:45:03;9.80;37.20
76203;DHT22;64985;46.364;17.008;2023-03-05T15:48:07;10.00;36.90
76203;DHT22;64985;46.364;17.008;2023-03-05T15:51:11;10.90;35.90
76203;DHT22;64985;46.364;17.008;2023-03-05T15:54:18;11.50;35.20
76203;DHT22;64985;46.364;17.008;2023-03-05T15:57:22;11.40;33.70
76203;DHT22;64985;46.364;17.008;2023-03-05T16:00:29;11.00;33.30
76203;DHT22;64985;46.364;17.008;2023-03-05T16:03:34;10.70;33.80
76203;DHT22;64985;46.364;17.008;2023-03-05T16:06:38;10.50;32.90
76203;DHT22;64985;46.364;17.008;2023-03-05T16:09:47;10.30;32.90
76203;DHT22;64985;46.364;17.008;2023-03-05T16:13:00;9.70;34.90
76203;DHT22;64985;46.364;17.008;2023-03-05T16:16:06;9.20;36.50
76203;DHT22;64985;46.364;17.008;2023-03-05T16:19:12;8.40;37.50
76203;DHT22;64985;46.364;17.008;2023-03-05T16:22:17;7.90;40.50
76203;DHT22;64985;46.364;17.008;2023-03-05T16:25:21;7.50;60.80
76203;DHT22;64985;46.364;17.008;2023-03-05T16:28:25;7.10;69.10
76203;DHT22;64985;46.364;17.008;2023-03-05T16:31:31;6.80;82.40
76203;DHT22;64985;46.364;17.008;2023-03-05T16:34:42;6.40;87.90
76203;DHT22;64985;46.364;17.008;2023-03-05T16:37:46;6.10;90.80
76203;DHT22;64985;46.364;17.008;2023-03-05T16:40:50;5.80;94.50
76203;DHT22;64985;46.364;17.008;2023-03-05T16:44:10;5.50;95.00
76203;DHT22;64985;46.364;17.008;2023-03-05T16:47:14;5.10;95.80
76203;DHT22;64985;46.364;17.008;2023-03-05T16:50:18;4.90;97.00
76203;DHT22;64985;46.364;17.008;2023-03-05T16:53:23;4.60;97.00
76203;DHT22;64985;46.364;17.008;2023-03-05T16:56:26;4.40;97.10
76203;DHT22;64985;46.364;17.008;2023-03-05T16:59:33;4.20;97.90
76203;DHT22;64985;46.364;17.008;2023-03-05T17:02:37;4.00;98.80
76203;DHT22;64985;46.364;17.008;2023-03-05T17:05:40;3.80;99.60
76203;DHT22;64985;46.364;17.008;2023-03-05T17:08:45;3.70;99.90
76203;DHT22;64985;46.364;17.008;2023-03-05T17:11:49;3.50;99.90
76203;DHT22;64985;46.364;17.008;2023-03-05T17:14:54;3.40;99.90
76203;DHT22;64985;46.364;17.008;2023-03-05T17:17:58;3.30;99.90
76203;DHT22;64985;46.364;17.008;2023-03-05T17:21:04;3.20;99.90
76203;DHT22;64985;46.364;17.008;2023-03-05T17:24:08;3.00;99.90
76203;DHT22;64985;46.364;17.008;2023-03-05T17:27:12;3.00;99.90
76203;DHT22;64985;46.364;17.008;2023-03-05T17:30:17;2.90;99.90
76203;DHT22;64985;46.364;17.008;2023-03-05T17:33:23;2.90;99.90
76203;DHT22;64985;46.364;17.008;2023-03-05T17:36:27;2.70;99.90
76203;DHT22;64985;46.364;17.008;2023-03-05T17:39:30;2.50;99.90
76203;DHT22;64985;46.364;17.008;2023-03-05T17:42:34;2.40;99.90
76203;DHT22;64985;46.364;17.008;2023-03-05T17:45:39;2.20;99.90
76203;DHT22;64985;46.364;17.008;2023-03-05T17:48:44;2.00;99.90
76203;DHT22;64985;46.364;17.008;2023-03-05T17:51:48;2.00;99.90
76203;DHT22;64985;46.364;17.008;2023-03-05T17:54:53;1.90;99.90
76203;DHT22;64985;46.364;17.008;2023-03-05T17:57:57;1.80;99.90
76203;DHT22;64985;46.364;17.008;2023-03-05T18:01:03;1.80;99.90
76203;DHT22;64985;46.364;17.008;2023-03-05T18:04:07;1.80;99.90
76203;DHT22;64985;46.364;17.008;2023-03-05T18:07:12;1.70;99.90
76203;DHT22;64985;46.364;17.008;2023-03-05T18:10:17;1.50;99.90
76203;DHT22;64985;46.364;17.008;2023-03-05T18:13:22;1.50;99.90
76203;DHT22;64985;46.364;17.008;2023-03-05T18:16:26;1.40;99.90
76203;DHT22;64985;46.364;17.008;2023-03-05T18:19:32;1.40;99.90
76203;DHT22;64985;46.364;17.008;2023-03-05T18:22:35;1.30;99.90
76203;DHT22;64985;46.364;17.008;2023-03-05T18:25:39;1.20;99.90
76203;DHT22;64985;46.364;17.008;2023-03-05T18:28:46;1.00;99.90
76203;DHT22;64985;46.364;17.008;2023-03-05T18:31:49;0.90;99.90
76203;DHT22;64985;46.364;17.008;2023-03-05T18:34:53;0.70;99.90
76203;DHT22;64985;46.364;17.008;2023-03-05T18:37:58;0.60;99.90
76203;DHT22;64985;46.364;17.008;2023-03-05T18:41:03;0.60;99.90
76203;DHT22;64985;46.364;17.008;2023-03-05T18:44:09;0.60;99.90
76203;DHT22;64985;46.364;17.008;2023-03-05T18:47:12;0.50;99.90
76203;DHT22;64985;46.364;17.008;2023-03-05T18:50:17;0.50;99.90
76203;DHT22;64985;46.364;17.008;2023-03-05T18:53:21;0.50;99.90
76203;DHT22;64985;46.364;17.008;2023-03-05T18:56:24;0.50;99.90
76203;DHT22;64985;46.364;17.008;2023-03-05T18:59:31;0.50;99.90
76203;DHT22;64985;46.364;17.008;2023-03-05T19:02:36;0.40;99.90
76203;DHT22;64985;46.364;17.008;2023-03-05T19:05:41;0.30;99.90
76203;DHT22;64985;46.364;17.008;2023-03-05T19:08:46;0.30;99.90
76203;DHT22;64985;46.364;17.008;2023-03-05T19:11:59;0.20;99.90
76203;DHT22;64985;46.364;17.008;2023-03-05T19:15:04;0.20;99.90
76203;DHT22;64985;46.364;17.008;2023-03-05T19:18:08;0.20;99.90
76203;DHT22;64985;46.364;17.008;2023-03-05T19:21:13;0.10;99.90
76203;DHT22;64985;46.364;17.008;2023-03-05T19:24:17;-0.10;99.90
76203;DHT22;64985;46.364;17.008;2023-03-05T19:27:22;-0.10;99.90
76203;DHT22;64985;46.364;17.008;2023-03-05T19:30:26;0.10;99.90
76203;DHT22;64985;46.364;17.008;2023-03-05T19:33:31;0.10;99.90
76203;DHT22;64985;46.364;17.008;2023-03-05T19:36:35;0.10;99.90
76203;DHT22;64985;46.364;17.008;2023-03-05T19:39:40;0.00;99.90
76203;DHT22;64985;46.364;17.008;2023-03-05T19:42:44;0.00;99.90
76203;DHT22;64985;46.364;17.008;2023-03-05T19:45:48;-0.10;99.90
76203;DHT22;64985;46.364;17.008;2023-03-05T19:48:53;-0.20;99.90
76203;DHT22;64985;46.364;17.008;2023-03-05T19:51:57;-0.30;99.90
76203;DHT22;64985;46.364;17.008;2023-03-05T19:55:01;-0.40;99.90
76203;DHT22;64985;46.364;17.008;2023-03-05T19:58:07;-0.40;99.90
76203;DHT22;64985;46.364;17.008;2023-03-05T20:01:17;-0.50;99.90
76203;DHT22;64985;46.364;17.008;2023-03-05T20:04:24;-0.60;99.90
76203;DHT22;64985;46.364;17.008;2023-03-05T20:07:30;-0.60;99.90
76203;DHT22;64985;46.364;17.008;2023-03-05T20:10:35;-0.70;99.90
76203;DHT22;64985;46.364;17.008;2023-03-05T20:13:40;-0.70;99.90
76203;DHT22;64985;46.364;17.008;2023-03-05T20:16:46;-0.70;99.90
76203;DHT22;64985;46.364;17.008;2023-03-05T20:19:49;-0.70;99.90
76203;DHT22;64985;46.364;17.008;2023-03-05T20:22:58;-0.70;99.90
76203;DHT22;64985;46.364;17.008;2023-03-05T20:26:03;-0.70;99.90
76203;DHT22;64985;46.364;17.008;2023-03-05T20:29:08;-0.80;99.90
76203;DHT22;64985;46.364;17.008;2023-03-05T20:32:13;-0.80;99.90
76203;DHT22;64985;46.364;17.008;2023-03-05T20:35:17;-0.80;99.90
76203;DHT22;64985;46.364;17.008;2023-03-05T20:38:26;-0.80;99.90
76203;DHT22;64985;46.364;17.008;2023-03-05T20:41:34;-0.90;99.90
76203;DHT22;64985;46.364;17.008;2023-03-05T20:44:38;-1.00;99.90
76203;DHT22;64985;46.364;17.008;2023-03-05T20:47:42;-1.00;99.90